createdAt,value
2023-05-24T00:00:43.015Z,80.88
2023-05-24T00:01:46.820Z,80.88
2023-05-24T00:03:09.317Z,80.85
2023-05-24T00:04:12.282Z,81.03
2023-05-24T00:05:16.966Z,81.10
2023-05-24T00:06:21.315Z,80.98
2023-05-24T00:07:25.500Z,81.16
2023-05-24T00:08:28.462Z,81.12
2023-05-24T00:09:50.196Z,81.15
2023-05-24T00:10:52.824Z,81.17
2023-05-24T00:11:56.230Z,80.80
2023-05-24T00:13:10.482Z,81.12
2023-05-24T00:14:13.805Z,80.91
2023-05-24T00:15:34.833Z,80.72
2023-05-24T00:16:41.083Z,80.66
2023-05-24T00:17:44.333Z,80.75
2023-05-24T00:18:48.570Z,80.80
2023-05-24T00:19:52.547Z,80.68
2023-05-24T00:20:57.298Z,80.64
2023-05-24T00:22:01.256Z,80.32
2023-05-24T00:23:22.899Z,80.31
2023-05-24T00:24:26.226Z,80.21
2023-05-24T00:25:29.694Z,80.26
2023-05-24T00:26:50.655Z,80.34
2023-05-24T00:28:12.379Z,80.38
2023-05-24T00:29:14.842Z,80.46
2023-05-24T00:30:18.905Z,80.39
2023-05-24T00:31:21.479Z,80.54
2023-05-24T00:32:24.885Z,80.52
2023-05-24T00:33:28.316Z,80.40
2023-05-24T00:34:31.586Z,80.23
2023-05-24T00:35:34.513Z,80.36
2023-05-24T00:36:38.310Z,80.39
2023-05-24T00:37:45.451Z,80.51
2023-05-24T00:38:48.081Z,80.35
2023-05-24T00:39:51.451Z,80.38
2023-05-24T00:40:56.433Z,80.36
2023-05-24T00:41:59.871Z,80.49
2023-05-24T00:43:02.238Z,80.40
2023-05-24T00:44:05.570Z,80.42
2023-05-24T00:45:08.777Z,80.44
2023-05-24T00:46:19.459Z,80.52
2023-05-24T00:47:23.188Z,80.38
2023-05-24T00:48:28.868Z,80.53
2023-05-24T00:49:31.627Z,80.26
2023-05-24T00:50:35.041Z,80.43
2023-05-24T00:51:38.583Z,80.40
2023-05-24T00:52:44.585Z,80.36
2023-05-24T00:53:49.385Z,79.79
2023-05-24T00:54:52.950Z,80.23
2023-05-24T00:55:55.758Z,80.12
2023-05-24T00:57:00.139Z,79.91
2023-05-24T00:58:02.777Z,79.81
2023-05-24T00:59:06.493Z,79.62
2023-05-24T01:00:11.385Z,79.74
2023-05-24T01:01:18.319Z,79.53
2023-05-24T01:02:21.692Z,79.47
2023-05-24T01:03:25.275Z,79.31
2023-05-24T01:04:28.149Z,79.25
2023-05-24T01:05:32.038Z,79.37
2023-05-24T01:06:44.981Z,79.40
2023-05-24T01:08:00.789Z,79.43
2023-05-24T01:09:20.999Z,79.76
2023-05-24T01:10:35.158Z,79.57
2023-05-24T01:11:50.390Z,79.67
2023-05-24T01:12:59.893Z,79.72
2023-05-24T01:14:15.027Z,79.78
2023-05-24T01:15:25.429Z,79.89
2023-05-24T01:16:36.541Z,80.06
2023-05-24T01:17:48.573Z,80.12
2023-05-24T01:18:56.216Z,80.13
2023-05-24T01:20:02.364Z,80.28
2023-05-24T01:21:17.368Z,80.27
2023-05-24T01:22:38.962Z,80.44
2023-05-24T01:23:51.434Z,80.19
2023-05-24T01:25:03.762Z,80.17
2023-05-24T01:26:22.240Z,79.92
2023-05-24T01:27:27.977Z,80.08
2023-05-24T01:28:33.568Z,79.99
2023-05-24T01:29:36.725Z,80.30
2023-05-24T01:30:41.752Z,79.91
2023-05-24T01:31:44.510Z,80.38
2023-05-24T01:32:48.257Z,80.21
2023-05-24T01:33:51.627Z,80.39
2023-05-24T01:34:54.900Z,80.29
2023-05-24T01:35:57.352Z,80.35
2023-05-24T01:37:00.758Z,80.37
2023-05-24T01:38:03.137Z,80.16
2023-05-24T01:39:07.007Z,80.12
2023-05-24T01:40:10.561Z,80.22
2023-05-24T01:41:24.819Z,80.16
2023-05-24T01:42:45.151Z,80.34
2023-05-24T01:43:57.457Z,80.44
2023-05-24T01:45:09.275Z,80.57
2023-05-24T01:46:20.146Z,80.54
2023-05-24T01:47:31.279Z,80.80
2023-05-24T01:48:43.164Z,80.81
2023-05-24T01:49:51.049Z,80.71
2023-05-24T01:50:59.073Z,80.79
2023-05-24T01:52:06.481Z,80.85
2023-05-24T01:53:14.592Z,80.80
2023-05-24T01:54:21.176Z,80.80
2023-05-24T01:55:25.281Z,80.85
2023-05-24T01:56:29.572Z,80.87
2023-05-24T01:57:36.383Z,80.83
2023-05-24T01:58:41.733Z,81.03
2023-05-24T01:59:46.664Z,81.16
2023-05-24T02:00:50.095Z,80.84
2023-05-24T02:01:53.496Z,80.93
2023-05-24T02:04:01.504Z,80.80
2023-05-24T02:05:04.397Z,80.95
2023-05-24T02:06:08.347Z,80.88
2023-05-24T02:07:10.812Z,81.04
2023-05-24T02:08:14.243Z,80.84
2023-05-24T02:09:16.778Z,80.83
2023-05-24T02:10:20.840Z,80.63
2023-05-24T02:11:23.219Z,80.79
2023-05-24T02:12:26.514Z,80.89
2023-05-24T02:13:30.216Z,80.76
2023-05-24T02:14:33.489Z,80.82
2023-05-24T02:15:36.916Z,80.92
2023-05-24T02:16:42.857Z,81.08
2023-05-24T02:17:46.142Z,80.82
2023-05-24T02:18:50.633Z,81.00
2023-05-24T02:19:53.321Z,81.25
2023-05-24T02:20:57.296Z,80.87
2023-05-24T02:21:59.860Z,80.90
2023-05-24T02:23:03.272Z,80.91
2023-05-24T02:24:06.901Z,80.93
2023-05-24T02:25:10.626Z,80.73
2023-05-24T02:26:14.492Z,80.72
2023-05-24T02:27:17.902Z,80.42
2023-05-24T02:28:20.336Z,80.79
2023-05-24T02:29:25.508Z,80.46
2023-05-24T02:30:28.285Z,80.55
2023-05-24T02:31:32.605Z,80.54
2023-05-24T02:32:35.150Z,80.48
2023-05-24T02:33:48.492Z,80.52
2023-05-24T02:34:51.366Z,80.54
2023-05-24T02:35:55.283Z,80.42
2023-05-24T02:36:57.701Z,80.33
2023-05-24T02:38:01.649Z,80.21
2023-05-24T02:39:04.368Z,80.20
2023-05-24T02:40:08.727Z,80.17
2023-05-24T02:41:18.004Z,80.21
2023-05-24T02:42:21.412Z,79.95
2023-05-24T02:43:24.416Z,80.13
2023-05-24T02:44:29.109Z,80.24
2023-05-24T02:45:31.782Z,80.02
2023-05-24T02:46:36.111Z,80.36
2023-05-24T02:47:38.579Z,80.18
2023-05-24T02:48:42.373Z,80.23
2023-05-24T02:49:44.862Z,80.40
2023-05-24T02:50:48.226Z,80.32
2023-05-24T02:51:52.295Z,80.43
2023-05-24T02:52:55.608Z,80.51
2023-05-24T02:53:58.002Z,80.64
2023-05-24T02:55:01.344Z,80.69
2023-05-24T02:56:03.849Z,80.73
2023-05-24T02:57:07.662Z,80.97
2023-05-24T02:58:10.228Z,80.81
2023-05-24T02:59:13.661Z,80.72
2023-05-24T03:00:26.998Z,80.80
2023-05-24T03:01:39.323Z,80.90
2023-05-24T03:02:46.866Z,81.04
2023-05-24T03:04:00.410Z,81.10
2023-05-24T03:05:08.293Z,81.02
2023-05-24T03:06:15.911Z,81.14
2023-05-24T03:07:24.825Z,81.16
2023-05-24T03:08:31.236Z,81.16
2023-05-24T03:09:39.424Z,81.25
2023-05-24T03:10:49.961Z,81.15
2023-05-24T03:11:57.548Z,81.24
2023-05-24T03:13:04.091Z,81.13
2023-05-24T03:14:06.918Z,81.10
2023-05-24T03:15:11.550Z,81.06
2023-05-24T03:16:17.900Z,81.10
2023-05-24T03:17:21.454Z,81.26
2023-05-24T03:18:23.916Z,81.15
2023-05-24T03:19:27.300Z,81.05
2023-05-24T03:20:29.664Z,81.00
2023-05-24T03:21:33.332Z,80.97
2023-05-24T03:22:36.113Z,80.96
2023-05-24T03:23:39.418Z,80.94
2023-05-24T03:24:41.847Z,81.10
2023-05-24T03:25:45.744Z,81.02
2023-05-24T03:26:48.107Z,81.12
2023-05-24T03:27:51.414Z,81.16
2023-05-24T03:28:54.566Z,81.22
2023-05-24T03:29:58.406Z,81.18
2023-05-24T03:31:01.057Z,81.16
2023-05-24T03:32:06.005Z,81.28
2023-05-24T03:33:08.511Z,81.44
2023-05-24T03:34:11.907Z,81.49
2023-05-24T03:35:14.949Z,81.31
2023-05-24T03:36:18.305Z,81.30
2023-05-24T03:37:20.654Z,81.49
2023-05-24T03:38:24.120Z,81.25
2023-05-24T03:39:26.463Z,81.67
2023-05-24T03:40:33.104Z,81.42
2023-05-24T03:41:35.510Z,81.05
2023-05-24T03:42:39.239Z,81.32
2023-05-24T03:43:41.745Z,81.44
2023-05-24T03:44:45.124Z,81.47
2023-05-24T03:45:48.224Z,81.61
2023-05-24T03:46:51.592Z,81.46
2023-05-24T03:47:55.495Z,81.45
2023-05-24T03:48:58.965Z,81.53
2023-05-24T03:50:01.387Z,81.49
2023-05-24T03:51:05.977Z,81.56
2023-05-24T03:52:08.307Z,81.67
2023-05-24T03:53:11.586Z,81.83
2023-05-24T03:54:13.944Z,81.64
2023-05-24T03:55:17.296Z,81.65
2023-05-24T03:56:19.743Z,81.49
2023-05-24T03:57:23.171Z,81.81
2023-05-24T03:58:26.531Z,81.45
2023-05-24T03:59:30.905Z,81.59
2023-05-24T04:00:33.291Z,81.36
2023-05-24T04:01:37.738Z,81.77
2023-05-24T04:02:40.244Z,81.37
2023-05-24T04:03:46.080Z,81.61
2023-05-24T04:04:48.590Z,81.51
2023-05-24T04:05:52.238Z,81.42
2023-05-24T04:06:56.309Z,81.43
2023-05-24T04:07:59.662Z,81.45
2023-05-24T04:09:02.738Z,81.32
2023-05-24T04:10:07.756Z,81.30
2023-05-24T04:11:11.260Z,81.39
2023-05-24T04:12:14.611Z,81.47
2023-05-24T04:13:17.029Z,81.33
2023-05-24T04:14:20.647Z,81.10
2023-05-24T04:15:24.011Z,81.13
2023-05-24T04:16:27.670Z,81.20
2023-05-24T04:17:35.189Z,81.03
2023-05-24T04:18:38.714Z,81.13
2023-05-24T04:19:42.570Z,81.12
2023-05-24T04:20:46.039Z,81.15
2023-05-24T04:21:48.533Z,81.14
2023-05-24T04:22:52.436Z,80.98
2023-05-24T04:23:55.970Z,81.04
2023-05-24T04:24:59.515Z,80.88
2023-05-24T04:26:01.994Z,80.76
2023-05-24T04:27:05.538Z,81.00
2023-05-24T04:28:09.140Z,80.80
2023-05-24T04:29:13.048Z,81.12
2023-05-24T04:30:16.209Z,81.03
2023-05-24T04:31:20.339Z,80.90
2023-05-24T04:32:23.679Z,81.10
2023-05-24T04:33:28.098Z,81.03
2023-05-24T04:34:33.828Z,80.85
2023-05-24T04:35:40.829Z,80.91
2023-05-24T04:36:43.407Z,80.92
2023-05-24T04:37:50.862Z,80.75
2023-05-24T04:38:53.842Z,80.72
2023-05-24T04:39:57.518Z,80.72
2023-05-24T04:41:01.952Z,80.73
2023-05-24T04:42:05.317Z,80.50
2023-05-24T04:43:10.780Z,80.73
2023-05-24T04:44:13.845Z,80.55
2023-05-24T04:45:18.050Z,80.48
2023-05-24T04:46:20.446Z,80.37
2023-05-24T04:47:23.936Z,80.53
2023-05-24T04:48:26.546Z,80.46
2023-05-24T04:49:29.901Z,80.50
2023-05-24T04:50:35.361Z,80.46
2023-05-24T04:51:40.170Z,80.17
2023-05-24T04:52:43.545Z,80.16
2023-05-24T04:53:45.952Z,80.65
2023-05-24T04:54:51.836Z,80.46
2023-05-24T04:55:54.440Z,80.23
2023-05-24T04:56:57.801Z,80.48
2023-05-24T04:58:00.254Z,80.44
2023-05-24T04:59:04.226Z,80.46
2023-05-24T05:00:08.258Z,80.29
2023-05-24T05:01:15.354Z,80.11
2023-05-24T05:02:19.196Z,80.35
2023-05-24T05:03:22.579Z,80.38
2023-05-24T05:04:25.136Z,80.22
2023-05-24T05:05:28.558Z,80.18
2023-05-24T05:06:31.812Z,80.19
2023-05-24T05:07:36.539Z,79.89
2023-05-24T05:08:39.003Z,79.72
2023-05-24T05:09:42.298Z,79.84
2023-05-24T05:10:44.798Z,79.93
2023-05-24T05:11:48.548Z,79.95
2023-05-24T05:12:51.842Z,79.35
2023-05-24T05:13:55.219Z,79.35
2023-05-24T05:14:58.496Z,78.62
2023-05-24T05:16:01.942Z,78.25
2023-05-24T05:17:04.734Z,78.21
2023-05-24T05:18:08.694Z,77.61
2023-05-24T05:19:11.118Z,77.13
2023-05-24T05:20:14.466Z,76.28
2023-05-24T05:21:17.498Z,76.22
2023-05-24T05:22:20.867Z,75.25
2023-05-24T05:23:25.208Z,75.48
2023-05-24T05:24:28.939Z,74.91
2023-05-24T05:25:31.272Z,74.54
2023-05-24T05:26:35.563Z,74.08
2023-05-24T05:27:37.993Z,74.07
2023-05-24T05:28:41.514Z,73.51
2023-05-24T05:29:44.144Z,73.24
2023-05-24T05:30:47.532Z,72.84
2023-05-24T05:31:49.969Z,72.65
2023-05-24T05:32:53.419Z,72.23
2023-05-24T05:33:56.618Z,72.03
2023-05-24T05:34:59.982Z,71.40
2023-05-24T05:36:02.394Z,71.82
2023-05-24T05:37:06.029Z,72.40
2023-05-24T05:38:08.455Z,72.08
2023-05-24T05:39:13.205Z,71.65
2023-05-24T05:40:15.838Z,71.11
2023-05-24T05:41:19.266Z,70.74
2023-05-24T05:42:22.737Z,70.31
2023-05-24T05:43:25.370Z,69.66
2023-05-24T05:44:29.267Z,69.11
2023-05-24T05:45:32.534Z,68.67
2023-05-24T05:46:35.024Z,68.14
2023-05-24T05:47:38.420Z,67.92
2023-05-24T05:48:40.983Z,67.18
2023-05-24T05:49:44.313Z,66.74
2023-05-24T05:50:46.728Z,66.56
2023-05-24T05:51:50.140Z,65.84
2023-05-24T05:52:52.562Z,65.02
2023-05-24T05:53:55.941Z,64.99
2023-05-24T05:55:00.408Z,64.74
2023-05-24T05:56:03.725Z,64.29
2023-05-24T05:57:08.248Z,63.92
2023-05-24T05:58:12.013Z,63.53
2023-05-24T05:59:16.709Z,62.89
2023-05-24T06:00:21.528Z,63.00
2023-05-24T06:01:25.139Z,62.51
2023-05-24T06:02:28.658Z,62.43
2023-05-24T06:03:32.218Z,61.91
2023-05-24T06:04:34.851Z,61.42
2023-05-24T06:05:38.826Z,60.42
2023-05-24T06:06:41.547Z,60.46
2023-05-24T06:07:45.869Z,59.47
2023-05-24T06:08:49.184Z,59.26
2023-05-24T06:09:52.463Z,58.36
2023-05-24T06:10:56.310Z,57.74
2023-05-24T06:11:59.550Z,57.60
2023-05-24T06:13:03.398Z,57.11
2023-05-24T06:14:07.155Z,56.88
2023-05-24T06:15:12.238Z,56.48
2023-05-24T06:16:15.306Z,55.66
2023-05-24T06:17:18.670Z,55.93
2023-05-24T06:18:21.137Z,55.41
2023-05-24T06:19:25.068Z,55.12
2023-05-24T06:20:27.781Z,54.92
2023-05-24T06:21:32.282Z,53.94
2023-05-24T06:22:36.634Z,52.50
2023-05-24T06:23:39.922Z,51.88
2023-05-24T06:24:43.906Z,50.99
2023-05-24T06:25:47.250Z,50.38
2023-05-24T06:26:53.385Z,50.37
2023-05-24T06:27:55.973Z,49.53
2023-05-24T06:28:59.431Z,48.65
2023-05-24T06:30:01.883Z,48.10
2023-05-24T06:31:05.735Z,48.14
2023-05-24T06:32:08.832Z,47.65
2023-05-24T06:33:12.148Z,46.65
2023-05-24T06:34:17.094Z,46.20
2023-05-24T06:35:20.449Z,45.66
2023-05-24T06:36:22.888Z,46.55
2023-05-24T06:37:27.037Z,46.00
2023-05-24T06:38:29.447Z,45.40
2023-05-24T06:39:32.984Z,45.31
2023-05-24T06:40:36.296Z,45.11
2023-05-24T06:41:39.158Z,44.79
2023-05-24T06:42:44.446Z,44.06
2023-05-24T06:43:46.826Z,43.73
2023-05-24T06:44:50.145Z,43.83
2023-05-24T06:45:52.551Z,44.04
2023-05-24T06:46:56.266Z,43.88
2023-05-24T06:47:59.731Z,43.45
2023-05-24T06:49:03.350Z,43.17
2023-05-24T06:50:07.204Z,42.69
2023-05-24T06:51:10.841Z,42.58
2023-05-24T06:52:13.857Z,42.85
2023-05-24T06:53:18.503Z,42.30
2023-05-24T06:54:22.353Z,42.50
2023-05-24T06:55:24.785Z,42.56
2023-05-24T06:56:29.031Z,42.38
2023-05-24T06:57:31.813Z,41.58
2023-05-24T06:58:38.666Z,41.49
2023-05-24T06:59:41.066Z,41.02
2023-05-24T07:00:46.102Z,40.39
2023-05-24T07:01:51.759Z,39.85
2023-05-24T07:02:56.544Z,39.92
2023-05-24T07:04:00.000Z,39.98
2023-05-24T07:05:02.487Z,40.23
2023-05-24T07:06:06.690Z,39.31
2023-05-24T07:07:13.220Z,39.70
2023-05-24T07:08:16.778Z,39.48
2023-05-24T07:09:20.454Z,40.02
2023-05-24T07:10:23.876Z,39.13
2023-05-24T07:11:27.586Z,39.28
2023-05-24T07:12:32.525Z,38.98
2023-05-24T07:13:36.303Z,38.44
2023-05-24T07:14:39.775Z,38.63
2023-05-24T07:15:43.695Z,38.80
2023-05-24T07:16:46.836Z,38.88
2023-05-24T07:17:50.484Z,38.48
2023-05-24T07:18:52.938Z,38.24
2023-05-24T07:19:57.489Z,37.68
2023-05-24T07:21:01.277Z,38.07
2023-05-24T07:22:03.824Z,37.38
2023-05-24T07:23:07.948Z,37.76
2023-05-24T07:24:10.379Z,36.96
2023-05-24T07:25:14.542Z,36.47
2023-05-24T07:26:17.214Z,36.48
2023-05-24T07:27:20.690Z,36.15
2023-05-24T07:28:23.025Z,35.48
2023-05-24T07:29:27.751Z,35.62
2023-05-24T07:30:32.785Z,35.82
2023-05-24T07:31:37.022Z,35.61
2023-05-24T07:32:40.535Z,35.06
2023-05-24T07:33:43.086Z,35.08
2023-05-24T07:34:46.500Z,35.00
2023-05-24T07:35:52.370Z,34.77
2023-05-24T07:36:54.820Z,35.13
2023-05-24T07:37:58.255Z,35.35
2023-05-24T07:39:02.259Z,34.73
2023-05-24T07:40:11.230Z,34.40
2023-05-24T07:41:15.985Z,35.24
2023-05-24T07:42:19.448Z,35.70
2023-05-24T07:43:21.926Z,34.23
2023-05-24T07:44:25.842Z,34.12
2023-05-24T07:45:29.615Z,35.24
2023-05-24T07:46:34.108Z,33.35
2023-05-24T07:47:37.288Z,33.66
2023-05-24T07:48:41.010Z,33.93
2023-05-24T07:49:43.543Z,33.29
2023-05-24T07:50:48.850Z,33.39
2023-05-24T07:52:00.360Z,33.86
2023-05-24T07:53:05.349Z,34.44
2023-05-24T07:54:07.915Z,33.90
2023-05-24T07:55:11.712Z,33.52
2023-05-24T07:56:14.150Z,34.13
2023-05-24T07:57:18.512Z,33.36
2023-05-24T07:58:20.976Z,32.94
2023-05-24T07:59:24.502Z,33.37
2023-05-24T08:00:27.058Z,32.43
2023-05-24T08:01:32.268Z,32.20
2023-05-24T08:02:35.466Z,31.85
2023-05-24T08:03:39.554Z,32.39
2023-05-24T08:04:42.127Z,31.54
2023-05-24T08:05:45.887Z,31.36
2023-05-24T08:06:49.490Z,32.16
2023-05-24T08:07:53.703Z,32.32
2023-05-24T08:08:56.536Z,33.10
2023-05-24T08:10:00.194Z,34.53
2023-05-24T08:11:02.851Z,35.20
2023-05-24T08:12:07.556Z,36.30
2023-05-24T08:13:10.263Z,37.65
2023-05-24T08:14:13.763Z,37.57
2023-05-24T08:15:17.203Z,38.83
2023-05-24T08:16:19.885Z,39.47
2023-05-24T08:17:25.086Z,40.77
2023-05-24T08:18:28.446Z,40.50
2023-05-24T08:19:35.859Z,40.24
2023-05-24T08:20:40.903Z,39.64
2023-05-24T08:21:44.532Z,39.07
2023-05-24T08:22:48.529Z,37.57
2023-05-24T08:23:52.984Z,36.90
2023-05-24T08:24:56.376Z,36.63
2023-05-24T08:25:59.955Z,35.32
2023-05-24T08:27:04.459Z,34.89
2023-05-24T08:28:08.826Z,34.51
2023-05-24T08:29:12.552Z,33.22
2023-05-24T08:30:16.170Z,33.13
2023-05-24T08:31:19.745Z,33.04
2023-05-24T08:32:23.952Z,32.17
2023-05-24T08:33:27.418Z,32.58
2023-05-24T08:34:29.831Z,31.88
2023-05-24T08:35:33.276Z,32.58
2023-05-24T08:36:37.561Z,32.26
2023-05-24T08:37:40.100Z,32.05
2023-05-24T08:38:43.853Z,32.63
2023-05-24T08:39:48.316Z,32.56
2023-05-24T08:40:51.773Z,32.76
2023-05-24T08:42:07.774Z,33.18
2023-05-24T08:43:12.995Z,32.59
2023-05-24T08:44:15.885Z,32.40
2023-05-24T08:45:21.653Z,31.50
2023-05-24T08:46:25.876Z,31.72
2023-05-24T08:47:31.282Z,31.84
2023-05-24T08:48:38.705Z,30.72
2023-05-24T08:49:41.964Z,30.48
2023-05-24T08:50:47.261Z,30.99
2023-05-24T08:51:51.472Z,31.27
2023-05-24T08:52:55.437Z,30.96
2023-05-24T08:54:00.576Z,31.31
2023-05-24T08:55:05.483Z,31.75
2023-05-24T08:56:11.123Z,31.95
2023-05-24T08:57:16.721Z,31.81
2023-05-24T08:58:20.556Z,31.89
2023-05-24T08:59:26.830Z,31.68
2023-05-24T09:00:30.317Z,31.03
2023-05-24T09:01:34.715Z,30.70
2023-05-24T09:02:43.802Z,30.53
2023-05-24T09:03:49.018Z,30.23
2023-05-24T09:05:02.392Z,30.34
2023-05-24T09:06:06.521Z,30.77
2023-05-24T09:07:10.329Z,31.51
2023-05-24T09:08:18.148Z,31.50
2023-05-24T09:09:22.398Z,31.56
2023-05-24T09:10:26.920Z,31.22
2023-05-24T09:11:33.820Z,31.23
2023-05-24T09:12:39.316Z,31.20
2023-05-24T09:13:43.905Z,31.33
2023-05-24T09:14:47.512Z,31.47
2023-05-24T09:15:51.358Z,31.13
2023-05-24T09:16:55.726Z,31.42
2023-05-24T09:18:00.315Z,31.90
2023-05-24T09:19:04.297Z,32.72
2023-05-24T09:20:11.215Z,33.78
2023-05-24T09:21:15.274Z,33.34
2023-05-24T09:22:20.263Z,33.99
2023-05-24T09:23:25.643Z,34.96
2023-05-24T09:24:29.097Z,36.03
2023-05-24T09:25:31.659Z,35.03
2023-05-24T09:26:37.717Z,34.79
2023-05-24T09:27:40.396Z,34.72
2023-05-24T09:28:44.427Z,35.01
2023-05-24T09:29:49.186Z,34.93
2023-05-24T09:31:06.263Z,35.94
2023-05-24T09:32:10.403Z,36.37
2023-05-24T09:33:15.220Z,35.78
2023-05-24T09:34:17.765Z,35.87
2023-05-24T09:35:23.475Z,36.25
2023-05-24T09:36:30.103Z,37.16
2023-05-24T09:37:34.157Z,37.26
2023-05-24T09:38:37.768Z,37.89
2023-05-24T09:39:42.436Z,38.97
2023-05-24T09:40:46.137Z,39.38
2023-05-24T09:41:57.358Z,40.84
2023-05-24T09:43:05.903Z,41.92
2023-05-24T09:44:09.257Z,41.73
2023-05-24T09:45:13.391Z,42.00
2023-05-24T09:46:19.201Z,41.93
2023-05-24T09:47:22.722Z,41.46
2023-05-24T09:48:27.771Z,41.58
2023-05-24T09:49:30.259Z,41.93
2023-05-24T09:50:34.273Z,41.50
2023-05-24T09:51:39.525Z,42.33
2023-05-24T09:52:42.766Z,43.08
2023-05-24T09:53:47.090Z,43.15
2023-05-24T09:54:50.249Z,42.17
2023-05-24T09:55:57.024Z,42.85
2023-05-24T09:57:05.166Z,42.90
2023-05-24T09:58:09.328Z,43.02
2023-05-24T09:59:12.975Z,43.22
2023-05-24T10:00:22.402Z,43.63
2023-05-24T10:01:29.319Z,43.93
2023-05-24T10:02:41.588Z,44.60
2023-05-24T10:03:58.455Z,44.30
2023-05-24T10:05:01.853Z,45.23
2023-05-24T10:06:08.778Z,44.81
2023-05-24T10:07:12.945Z,45.00
2023-05-24T10:08:18.455Z,45.94
2023-05-24T10:09:22.682Z,45.96
2023-05-24T10:10:29.727Z,45.97
2023-05-24T10:11:33.233Z,46.83
2023-05-24T10:12:43.047Z,46.30
2023-05-24T10:13:47.337Z,47.61
2023-05-24T10:14:53.694Z,46.86
2023-05-24T10:15:56.917Z,47.80
2023-05-24T10:17:00.411Z,47.49
2023-05-24T10:18:10.579Z,47.34
2023-05-24T10:19:17.051Z,47.96
2023-05-24T10:20:19.933Z,48.11
2023-05-24T10:21:26.063Z,48.67
2023-05-24T10:22:29.333Z,48.75
2023-05-24T10:23:33.765Z,47.94
2023-05-24T10:24:42.174Z,48.10
2023-05-24T10:25:53.974Z,48.42
2023-05-24T10:26:59.166Z,47.92
2023-05-24T10:28:04.947Z,47.84
2023-05-24T10:29:12.724Z,48.76
2023-05-24T10:30:22.249Z,48.21
2023-05-24T10:31:29.664Z,48.61
2023-05-24T10:32:35.267Z,49.17
2023-05-24T10:33:40.189Z,49.27
2023-05-24T10:34:44.767Z,49.07
2023-05-24T10:35:48.629Z,49.05
2023-05-24T10:36:52.967Z,49.45
2023-05-24T10:37:55.778Z,49.92
2023-05-24T10:39:00.076Z,49.98
2023-05-24T10:40:02.759Z,49.71
2023-05-24T10:41:08.215Z,49.69
2023-05-24T10:42:11.407Z,50.44
2023-05-24T10:43:14.918Z,49.92
2023-05-24T10:44:21.247Z,49.48
2023-05-24T10:45:39.315Z,49.28
2023-05-24T10:47:09.298Z,49.79
2023-05-24T10:48:36.352Z,49.63
2023-05-24T10:49:40.705Z,49.92
2023-05-24T10:50:45.380Z,50.25
2023-05-24T10:51:49.037Z,50.34
2023-05-24T10:52:52.651Z,50.39
2023-05-24T10:53:57.962Z,50.62
2023-05-24T10:55:05.738Z,50.01
2023-05-24T10:56:10.382Z,49.88
2023-05-24T10:57:13.946Z,50.02
2023-05-24T10:58:20.079Z,50.02
2023-05-24T10:59:25.503Z,49.91
2023-05-24T11:00:35.359Z,50.21
2023-05-24T11:01:39.386Z,50.20
2023-05-24T11:02:42.791Z,50.10
2023-05-24T11:03:45.308Z,50.87
2023-05-24T11:04:49.557Z,50.76
2023-05-24T11:05:55.424Z,50.74
2023-05-24T11:07:04.506Z,50.48
2023-05-24T11:08:09.757Z,51.15
2023-05-24T11:09:12.238Z,51.26
2023-05-24T11:10:16.816Z,51.60
2023-05-24T11:12:35.278Z,51.93
2023-05-24T11:13:38.730Z,52.19
2023-05-24T11:14:42.573Z,51.88
2023-05-24T11:15:52.294Z,52.18
2023-05-24T11:16:55.364Z,51.85
2023-05-24T11:18:18.492Z,51.76
2023-05-24T11:19:23.555Z,52.06
2023-05-24T11:20:27.427Z,51.67
2023-05-24T11:21:32.375Z,52.11
2023-05-24T11:22:36.250Z,52.42
2023-05-24T11:23:39.484Z,52.63
2023-05-24T11:24:43.529Z,52.59
2023-05-24T11:25:47.640Z,52.25
2023-05-24T11:26:52.847Z,52.66
2023-05-24T11:27:57.463Z,51.98
2023-05-24T11:29:05.039Z,52.66
2023-05-24T11:30:12.593Z,52.95
2023-05-24T11:31:15.268Z,52.99
2023-05-24T11:32:20.617Z,52.34
2023-05-24T11:33:24.573Z,52.66
2023-05-24T11:34:28.833Z,52.11
2023-05-24T11:35:32.290Z,51.87
2023-05-24T11:36:36.653Z,51.35
2023-05-24T11:38:49.066Z,50.41
2023-05-24T11:39:54.195Z,50.26
2023-05-24T11:40:59.575Z,49.88
2023-05-24T11:42:06.690Z,49.73
2023-05-24T11:43:09.107Z,49.98
2023-05-24T11:44:13.718Z,50.23
2023-05-24T11:45:19.854Z,50.24
2023-05-24T11:46:23.100Z,50.03
2023-05-24T11:47:27.127Z,49.98
2023-05-24T11:48:30.677Z,49.61
2023-05-24T11:49:35.508Z,49.41
2023-05-24T11:50:49.147Z,48.82
2023-05-24T11:51:56.185Z,48.59
2023-05-24T11:53:03.267Z,47.99
2023-05-24T11:54:06.789Z,48.57
2023-05-24T11:55:17.297Z,48.20
2023-05-24T11:56:21.851Z,48.56
2023-05-24T11:57:31.691Z,49.23
2023-05-24T11:58:46.020Z,49.35
2023-05-24T11:59:49.742Z,49.37
2023-05-24T12:00:52.984Z,49.65
2023-05-24T12:02:00.903Z,49.88
2023-05-24T12:03:08.471Z,50.19
2023-05-24T12:04:13.030Z,50.36
2023-05-24T12:05:19.585Z,50.02
2023-05-24T12:06:23.212Z,49.79
2023-05-24T12:07:28.859Z,49.90
2023-05-24T12:08:31.531Z,48.93
2023-05-24T12:09:35.202Z,48.18
2023-05-24T12:10:39.766Z,47.71
2023-05-24T12:11:44.670Z,47.14
2023-05-24T12:12:47.424Z,47.19
2023-05-24T12:13:51.062Z,47.71
2023-05-24T12:14:56.956Z,47.43
2023-05-24T12:16:00.843Z,47.10
2023-05-24T12:17:04.488Z,47.18
2023-05-24T12:18:19.117Z,46.88
2023-05-24T12:19:32.909Z,46.50
2023-05-24T12:20:39.376Z,47.14
2023-05-24T12:21:42.312Z,47.13
2023-05-24T12:22:51.852Z,47.44
2023-05-24T12:23:54.287Z,46.78
2023-05-24T12:24:59.205Z,46.68
2023-05-24T12:26:02.278Z,46.56
2023-05-24T12:27:07.996Z,46.80
2023-05-24T12:28:11.996Z,45.82
2023-05-24T12:29:15.155Z,45.84
2023-05-24T12:30:21.457Z,45.90
2023-05-24T12:31:24.901Z,45.79
2023-05-24T12:32:27.420Z,46.78
2023-05-24T12:33:32.133Z,46.99
2023-05-24T12:34:35.875Z,46.39
2023-05-24T12:35:41.845Z,46.60
2023-05-24T12:36:45.460Z,47.50
2023-05-24T12:37:50.155Z,47.66
2023-05-24T12:38:54.288Z,48.01
2023-05-24T12:39:57.712Z,48.70
2023-05-24T12:41:12.309Z,48.45
2023-05-24T12:42:17.248Z,47.82
2023-05-24T12:43:20.371Z,47.13
2023-05-24T12:44:26.421Z,46.82
2023-05-24T12:45:30.186Z,46.61
2023-05-24T12:46:32.594Z,46.13
2023-05-24T12:47:36.638Z,46.99
2023-05-24T12:48:40.324Z,47.00
2023-05-24T12:49:44.072Z,47.12
2023-05-24T12:50:47.500Z,47.32
2023-05-24T12:51:50.269Z,48.18
2023-05-24T12:52:55.542Z,48.36
2023-05-24T12:53:59.152Z,48.84
2023-05-24T12:55:01.831Z,48.65
2023-05-24T12:56:05.421Z,48.97
2023-05-24T12:57:09.274Z,48.15
2023-05-24T12:58:14.774Z,48.19
2023-05-24T12:59:18.196Z,48.35
2023-05-24T13:00:23.159Z,48.08
2023-05-24T13:01:28.558Z,47.85
2023-05-24T13:02:31.416Z,47.95
2023-05-24T13:03:35.094Z,48.10
2023-05-24T13:04:38.857Z,47.88
2023-05-24T13:05:42.883Z,48.12
2023-05-24T13:06:46.277Z,48.95
2023-05-24T13:07:49.751Z,49.05
2023-05-24T13:08:54.686Z,48.92
2023-05-24T13:09:58.216Z,49.68
2023-05-24T13:11:02.031Z,50.25
2023-05-24T13:12:05.934Z,50.71
2023-05-24T13:13:09.492Z,50.94
2023-05-24T13:14:12.458Z,51.38
2023-05-24T13:15:16.187Z,51.30
2023-05-24T13:16:18.884Z,51.83
2023-05-24T13:17:23.018Z,51.69
2023-05-24T13:18:27.351Z,52.04
2023-05-24T13:19:29.888Z,51.60
2023-05-24T13:20:33.539Z,51.45
2023-05-24T13:21:37.484Z,51.23
2023-05-24T13:22:41.198Z,51.40
2023-05-24T13:23:44.457Z,51.36
2023-05-24T13:24:49.192Z,51.04
2023-05-24T13:25:51.744Z,50.79
2023-05-24T13:26:55.507Z,51.36
2023-05-24T13:27:58.039Z,51.71
2023-05-24T13:30:17.264Z,51.88
2023-05-24T13:31:20.779Z,52.29
2023-05-24T13:32:24.406Z,51.64
2023-05-24T13:33:27.842Z,51.87
2023-05-24T13:34:31.371Z,52.21
2023-05-24T13:35:34.737Z,52.11
2023-05-24T13:36:38.962Z,52.07
2023-05-24T13:37:42.868Z,51.95
2023-05-24T13:38:45.314Z,51.86
2023-05-24T13:39:50.537Z,52.21
2023-05-24T13:40:55.194Z,52.58
2023-05-24T13:41:57.889Z,52.55
2023-05-24T13:43:01.908Z,52.58
2023-05-24T13:44:07.319Z,52.45
2023-05-24T13:45:13.028Z,52.64
2023-05-24T13:46:15.496Z,52.53
2023-05-24T13:47:31.068Z,53.06
2023-05-24T13:48:42.481Z,52.98
2023-05-24T13:49:45.027Z,53.01
2023-05-24T13:50:48.696Z,52.86
2023-05-24T13:51:55.481Z,53.11
2023-05-24T13:53:02.264Z,53.34
2023-05-24T13:54:07.273Z,53.13
2023-05-24T13:55:13.549Z,52.87
2023-05-24T13:56:16.354Z,52.47
2023-05-24T13:57:21.070Z,52.06
2023-05-24T13:58:26.201Z,52.17
2023-05-24T13:59:28.981Z,51.99
2023-05-24T14:00:33.300Z,51.81